sensor_id;sensor_type;location;lat;lon;timestamp;P1;durP1;ratioP1;P2;durP2;ratioP2
19780;SDS011;10050;55.492;13.506;2023-04-08T00:01:06;5.13;;;4.50;;
19780;SDS011;10050;55.492;13.506;2023-04-08T00:03:32;5.67;;;5.17;;
19780;SDS011;10050;55.492;13.506;2023-04-08T00:05:57;6.13;;;4.97;;
19780;SDS011;10050;55.492;13.506;2023-04-08T00:08:24;6.30;;;5.20;;
19780;SDS011;10050;55.492;13.506;2023-04-08T00:10:50;5.80;;;4.83;;
19780;SDS011;10050;55.492;13.506;2023-04-08T00:13:16;6.60;;;4.77;;
19780;SDS011;10050;55.492;13.506;2023-04-08T00:15:41;5.90;;;5.17;;
19780;SDS011;10050;55.492;13.506;2023-04-08T00:18:07;6.83;;;4.63;;
19780;SDS011;10050;55.492;13.506;2023-04-08T00:20:32;5.87;;;4.63;;
19780;SDS011;10050;55.492;13.506;2023-04-08T00:22:58;5.43;;;4.93;;
19780;SDS011;10050;55.492;13.506;2023-04-08T00:25:24;5.47;;;4.87;;
19780;SDS011;10050;55.492;13.506;2023-04-08T00:27:50;8.23;;;5.70;;
19780;SDS011;10050;55.492;13.506;2023-04-08T00:30:15;5.93;;;5.10;;
19780;SDS011;10050;55.492;13.506;2023-04-08T00:32:41;6.17;;;4.93;;
19780;SDS011;10050;55.492;13.506;2023-04-08T00:35:07;9.43;;;5.10;;
19780;SDS011;10050;55.492;13.506;2023-04-08T00:37:33;6.27;;;5.47;;
19780;SDS011;10050;55.492;13.506;2023-04-08T00:39:59;6.70;;;4.70;;
19780;SDS011;10050;55.492;13.506;2023-04-08T00:42:24;5.90;;;4.47;;
19780;SDS011;10050;55.492;13.506;2023-04-08T00:44:50;5.07;;;4.57;;
19780;SDS011;10050;55.492;13.506;2023-04-08T00:47:16;4.97;;;4.03;;
19780;SDS011;10050;55.492;13.506;2023-04-08T00:49:42;6.13;;;4.87;;
19780;SDS011;10050;55.492;13.506;2023-04-08T00:52:08;6.20;;;4.90;;
19780;SDS011;10050;55.492;13.506;2023-04-08T00:54:35;6.60;;;4.60;;
19780;SDS011;10050;55.492;13.506;2023-04-08T00:57:01;6.77;;;5.03;;
19780;SDS011;10050;55.492;13.506;2023-04-08T00:59:29;5.57;;;4.47;;
19780;SDS011;10050;55.492;13.506;2023-04-08T01:02:00;5.60;;;4.63;;
19780;SDS011;10050;55.492;13.506;2023-04-08T01:04:48;5.80;;;5.20;;
19780;SDS011;10050;55.492;13.506;2023-04-08T01:10:01;7.57;;;4.80;;
19780;SDS011;10050;55.492;13.506;2023-04-08T01:12:39;9.07;;;5.40;;
19780;SDS011;10050;55.492;13.506;2023-04-08T01:15:08;5.40;;;4.90;;
19780;SDS011;10050;55.492;13.506;2023-04-08T01:17:36;5.27;;;4.77;;
19780;SDS011;10050;55.492;13.506;2023-04-08T01:20:03;6.83;;;4.70;;
19780;SDS011;10050;55.492;13.506;2023-04-08T01:25:04;5.50;;;4.73;;
19780;SDS011;10050;55.492;13.506;2023-04-08T01:27:35;4.97;;;4.47;;
19780;SDS011;10050;55.492;13.506;2023-04-08T01:30:02;5.10;;;4.53;;
19780;SDS011;10050;55.492;13.506;2023-04-08T01:32:29;5.17;;;4.17;;
19780;SDS011;10050;55.492;13.506;2023-04-08T01:34:56;7.50;;;4.63;;
19780;SDS011;10050;55.492;13.506;2023-04-08T01:37:23;5.47;;;4.33;;
19780;SDS011;10050;55.492;13.506;2023-04-08T01:39:50;6.47;;;4.63;;
19780;SDS011;10050;55.492;13.506;2023-04-08T01:42:16;7.57;;;4.70;;
19780;SDS011;10050;55.492;13.506;2023-04-08T01:44:42;6.10;;;5.27;;
19780;SDS011;10050;55.492;13.506;2023-04-08T01:47:09;6.17;;;5.00;;
19780;SDS011;10050;55.492;13.506;2023-04-08T01:49:37;6.90;;;4.17;;
19780;SDS011;10050;55.492;13.506;2023-04-08T01:52:03;7.17;;;4.70;;
19780;SDS011;10050;55.492;13.506;2023-04-08T01:54:33;4.97;;;4.47;;
19780;SDS011;10050;55.492;13.506;2023-04-08T01:56:59;6.57;;;4.70;;
19780;SDS011;10050;55.492;13.506;2023-04-08T01:59:28;6.83;;;4.73;;
19780;SDS011;10050;55.492;13.506;2023-04-08T02:01:58;5.27;;;4.77;;
19780;SDS011;10050;55.492;13.506;2023-04-08T02:04:27;5.90;;;4.70;;
19780;SDS011;10050;55.492;13.506;2023-04-08T02:06:53;12.33;;;4.60;;
19780;SDS011;10050;55.492;13.506;2023-04-08T02:09:20;6.33;;;4.87;;
19780;SDS011;10050;55.492;13.506;2023-04-08T02:11:46;7.97;;;4.67;;
19780;SDS011;10050;55.492;13.506;2023-04-08T02:14:11;7.43;;;4.87;;
19780;SDS011;10050;55.492;13.506;2023-04-08T02:16:48;6.03;;;4.90;;
19780;SDS011;10050;55.492;13.506;2023-04-08T02:19:19;4.70;;;4.20;;
19780;SDS011;10050;55.492;13.506;2023-04-08T02:21:54;5.83;;;5.23;;
19780;SDS011;10050;55.492;13.506;2023-04-08T02:24:23;6.10;;;4.77;;
19780;SDS011;10050;55.492;13.506;2023-04-08T02:26:51;5.43;;;4.40;;
19780;SDS011;10050;55.492;13.506;2023-04-08T02:29:19;5.30;;;4.57;;
19780;SDS011;10050;55.492;13.506;2023-04-08T02:31:46;7.00;;;5.10;;
19780;SDS011;10050;55.492;13.506;2023-04-08T02:34:14;5.00;;;3.97;;
19780;SDS011;10050;55.492;13.506;2023-04-08T02:36:41;4.60;;;4.17;;
19780;SDS011;10050;55.492;13.506;2023-04-08T02:39:10;5.77;;;4.90;;
19780;SDS011;10050;55.492;13.506;2023-04-08T02:41:35;5.13;;;4.20;;
19780;SDS011;10050;55.492;13.506;2023-04-08T02:44:01;5.27;;;4.17;;
19780;SDS011;10050;55.492;13.506;2023-04-08T02:46:27;4.87;;;4.37;;
19780;SDS011;10050;55.492;13.506;2023-04-08T02:48:52;7.10;;;3.87;;
19780;SDS011;10050;55.492;13.506;2023-04-08T02:51:18;7.93;;;4.43;;
19780;SDS011;10050;55.492;13.506;2023-04-08T02:53:44;5.00;;;4.50;;
19780;SDS011;10050;55.492;13.506;2023-04-08T02:56:10;4.57;;;3.90;;
19780;SDS011;10050;55.492;13.506;2023-04-08T02:58:35;5.37;;;4.13;;
19780;SDS011;10050;55.492;13.506;2023-04-08T03:01:01;6.63;;;4.33;;
19780;SDS011;10050;55.492;13.506;2023-04-08T03:03:27;4.43;;;4.03;;
19780;SDS011;10050;55.492;13.506;2023-04-08T03:05:57;5.30;;;4.37;;
19780;SDS011;10050;55.492;13.506;2023-04-08T03:08:23;5.00;;;4.37;;
19780;SDS011;10050;55.492;13.506;2023-04-08T03:10:48;4.47;;;4.03;;
19780;SDS011;10050;55.492;13.506;2023-04-08T03:13:14;6.03;;;4.20;;
19780;SDS011;10050;55.492;13.506;2023-04-08T03:15:41;6.03;;;4.37;;
19780;SDS011;10050;55.492;13.506;2023-04-08T03:18:06;4.90;;;3.87;;
19780;SDS011;10050;55.492;13.506;2023-04-08T03:20:32;5.93;;;3.80;;
19780;SDS011;10050;55.492;13.506;2023-04-08T03:22:58;3.73;;;3.40;;
19780;SDS011;10050;55.492;13.506;2023-04-08T03:25:24;4.83;;;3.50;;
19780;SDS011;10050;55.492;13.506;2023-04-08T03:27:50;4.60;;;4.13;;
19780;SDS011;10050;55.492;13.506;2023-04-08T03:30:16;5.67;;;4.33;;
19780;SDS011;10050;55.492;13.506;2023-04-08T03:32:41;4.50;;;3.57;;
19780;SDS011;10050;55.492;13.506;2023-04-08T03:35:07;6.80;;;4.20;;
19780;SDS011;10050;55.492;13.506;2023-04-08T03:37:33;4.20;;;3.87;;
19780;SDS011;10050;55.492;13.506;2023-04-08T03:39:59;4.80;;;3.93;;
19780;SDS011;10050;55.492;13.506;2023-04-08T03:42:24;3.73;;;3.43;;
19780;SDS011;10050;55.492;13.506;2023-04-08T03:44:51;6.40;;;3.77;;
19780;SDS011;10050;55.492;13.506;2023-04-08T03:47:16;4.97;;;3.83;;
19780;SDS011;10050;55.492;13.506;2023-04-08T03:49:42;4.20;;;3.70;;
19780;SDS011;10050;55.492;13.506;2023-04-08T03:52:07;4.83;;;3.70;;
19780;SDS011;10050;55.492;13.506;2023-04-08T03:54:33;7.03;;;4.07;;
19780;SDS011;10050;55.492;13.506;2023-04-08T03:56:59;3.90;;;3.47;;
19780;SDS011;10050;55.492;13.506;2023-04-08T03:59:24;5.07;;;3.90;;
19780;SDS011;10050;55.492;13.506;2023-04-08T04:01:50;4.73;;;3.80;;
19780;SDS011;10050;55.492;13.506;2023-04-08T04:04:17;4.17;;;3.77;;
19780;SDS011;10050;55.492;13.506;2023-04-08T04:06:43;7.53;;;3.77;;
19780;SDS011;10050;55.492;13.506;2023-04-08T04:09:08;4.13;;;3.53;;
19780;SDS011;10050;55.492;13.506;2023-04-08T04:11:35;4.63;;;3.63;;
19780;SDS011;10050;55.492;13.506;2023-04-08T04:14:01;5.03;;;3.70;;
19780;SDS011;10050;55.492;13.506;2023-04-08T04:16:26;4.43;;;3.97;;
19780;SDS011;10050;55.492;13.506;2023-04-08T04:18:52;4.43;;;4.00;;
19780;SDS011;10050;55.492;13.506;2023-04-08T04:21:18;4.87;;;3.77;;
19780;SDS011;10050;55.492;13.506;2023-04-08T04:23:43;5.27;;;4.17;;
19780;SDS011;10050;55.492;13.506;2023-04-08T04:26:09;4.53;;;3.50;;
19780;SDS011;10050;55.492;13.506;2023-04-08T04:28:35;5.53;;;4.00;;
19780;SDS011;10050;55.492;13.506;2023-04-08T04:31:02;5.70;;;3.97;;
19780;SDS011;10050;55.492;13.506;2023-04-08T04:33:28;4.53;;;3.87;;
19780;SDS011;10050;55.492;13.506;2023-04-08T04:35:54;5.00;;;3.90;;
19780;SDS011;10050;55.492;13.506;2023-04-08T04:38:20;4.63;;;3.63;;
19780;SDS011;10050;55.492;13.506;2023-04-08T04:40:45;5.10;;;3.83;;
19780;SDS011;10050;55.492;13.506;2023-04-08T04:43:11;4.47;;;3.77;;
19780;SDS011;10050;55.492;13.506;2023-04-08T04:45:37;3.53;;;3.23;;
19780;SDS011;10050;55.492;13.506;2023-04-08T04:48:03;3.87;;;3.50;;
19780;SDS011;10050;55.492;13.506;2023-04-08T04:50:29;4.00;;;3.60;;
19780;SDS011;10050;55.492;13.506;2023-04-08T04:52:55;4.83;;;3.90;;
19780;SDS011;10050;55.492;13.506;2023-04-08T04:55:21;3.90;;;3.37;;
19780;SDS011;10050;55.492;13.506;2023-04-08T04:57:47;5.20;;;3.53;;
19780;SDS011;10050;55.492;13.506;2023-04-08T05:00:13;5.07;;;3.47;;
19780;SDS011;10050;55.492;13.506;2023-04-08T05:02:40;3.97;;;3.43;;
19780;SDS011;10050;55.492;13.506;2023-04-08T05:05:05;4.80;;;3.80;;
19780;SDS011;10050;55.492;13.506;2023-04-08T05:07:35;3.80;;;3.33;;
19780;SDS011;10050;55.492;13.506;2023-04-08T05:10:01;4.23;;;3.67;;
19780;SDS011;10050;55.492;13.506;2023-04-08T05:12:27;4.00;;;3.37;;
19780;SDS011;10050;55.492;13.506;2023-04-08T05:14:53;4.70;;;3.67;;
19780;SDS011;10050;55.492;13.506;2023-04-08T05:17:19;3.93;;;3.53;;
19780;SDS011;10050;55.492;13.506;2023-04-08T05:19:44;6.47;;;3.77;;
19780;SDS011;10050;55.492;13.506;2023-04-08T05:22:10;3.77;;;3.37;;
19780;SDS011;10050;55.492;13.506;2023-04-08T05:24:36;4.10;;;3.70;;
19780;SDS011;10050;55.492;13.506;2023-04-08T05:27:01;4.83;;;3.60;;
19780;SDS011;10050;55.492;13.506;2023-04-08T05:29:27;4.17;;;3.57;;
19780;SDS011;10050;55.492;13.506;2023-04-08T05:31:53;5.83;;;3.17;;
19780;SDS011;10050;55.492;13.506;2023-04-08T05:34:20;3.87;;;3.47;;
19780;SDS011;10050;55.492;13.506;2023-04-08T05:36:47;3.83;;;3.43;;
19780;SDS011;10050;55.492;13.506;2023-04-08T05:39:16;3.57;;;3.23;;
19780;SDS011;10050;55.492;13.506;2023-04-08T05:41:42;3.73;;;3.43;;
19780;SDS011;10050;55.492;13.506;2023-04-08T05:44:08;4.00;;;3.70;;
19780;SDS011;10050;55.492;13.506;2023-04-08T05:46:34;4.30;;;3.77;;
19780;SDS011;10050;55.492;13.506;2023-04-08T05:49:00;3.13;;;2.90;;
19780;SDS011;10050;55.492;13.506;2023-04-08T05:51:25;4.57;;;3.50;;
19780;SDS011;10050;55.492;13.506;2023-04-08T05:53:51;3.83;;;3.53;;
19780;SDS011;10050;55.492;13.506;2023-04-08T05:56:17;3.63;;;3.17;;
19780;SDS011;10050;55.492;13.506;2023-04-08T05:58:42;3.77;;;3.33;;
19780;SDS011;10050;55.492;13.506;2023-04-08T06:01:08;4.27;;;2.97;;
19780;SDS011;10050;55.492;13.506;2023-04-08T06:03:33;5.87;;;3.50;;
19780;SDS011;10050;55.492;13.506;2023-04-08T06:05:59;3.70;;;3.40;;
19780;SDS011;10050;55.492;13.506;2023-04-08T06:08:25;3.27;;;2.93;;
19780;SDS011;10050;55.492;13.506;2023-04-08T06:10:51;4.40;;;2.93;;
19780;SDS011;10050;55.492;13.506;2023-04-08T06:13:16;4.63;;;3.10;;
19780;SDS011;10050;55.492;13.506;2023-04-08T06:15:44;3.60;;;3.10;;
19780;SDS011;10050;55.492;13.506;2023-04-08T06:18:10;4.17;;;3.37;;
19780;SDS011;10050;55.492;13.506;2023-04-08T06:20:35;3.97;;;2.83;;
19780;SDS011;10050;55.492;13.506;2023-04-08T06:23:01;3.20;;;2.80;;
19780;SDS011;10050;55.492;13.506;2023-04-08T06:25:26;3.87;;;3.00;;
19780;SDS011;10050;55.492;13.506;2023-04-08T06:27:52;3.00;;;2.70;;
19780;SDS011;10050;55.492;13.506;2023-04-08T06:30:17;3.63;;;3.30;;
19780;SDS011;10050;55.492;13.506;2023-04-08T06:32:43;4.57;;;3.10;;
19780;SDS011;10050;55.492;13.506;2023-04-08T06:35:11;3.57;;;3.13;;
19780;SDS011;10050;55.492;13.506;2023-04-08T06:37:37;3.83;;;3.10;;
19780;SDS011;10050;55.492;13.506;2023-04-08T06:40:05;3.40;;;3.07;;
19780;SDS011;10050;55.492;13.506;2023-04-08T06:42:31;3.30;;;3.00;;
19780;SDS011;10050;55.492;13.506;2023-04-08T06:44:57;2.70;;;2.50;;
19780;SDS011;10050;55.492;13.506;2023-04-08T06:47:23;2.90;;;2.57;;
19780;SDS011;10050;55.492;13.506;2023-04-08T06:49:48;4.40;;;3.07;;
19780;SDS011;10050;55.492;13.506;2023-04-08T06:52:14;3.13;;;2.70;;
19780;SDS011;10050;55.492;13.506;2023-04-08T06:54:41;2.87;;;2.67;;
19780;SDS011;10050;55.492;13.506;2023-04-08T06:57:06;2.40;;;2.20;;
19780;SDS011;10050;55.492;13.506;2023-04-08T06:59:32;2.83;;;2.40;;
19780;SDS011;10050;55.492;13.506;2023-04-08T07:01:58;3.70;;;2.53;;
19780;SDS011;10050;55.492;13.506;2023-04-08T07:04:24;4.37;;;2.50;;
19780;SDS011;10050;55.492;13.506;2023-04-08T07:06:50;2.33;;;2.20;;
19780;SDS011;10050;55.492;13.506;2023-04-08T07:09:16;2.67;;;2.47;;
19780;SDS011;10050;55.492;13.506;2023-04-08T07:11:41;3.37;;;2.80;;
19780;SDS011;10050;55.492;13.506;2023-04-08T07:14:07;2.97;;;2.57;;
19780;SDS011;10050;55.492;13.506;2023-04-08T07:16:33;2.57;;;2.37;;
19780;SDS011;10050;55.492;13.506;2023-04-08T07:18:58;2.70;;;2.50;;
19780;SDS011;10050;55.492;13.506;2023-04-08T07:21:24;2.97;;;2.73;;
19780;SDS011;10050;55.492;13.506;2023-04-08T07:23:51;3.03;;;2.70;;
19780;SDS011;10050;55.492;13.506;2023-04-08T07:26:16;4.67;;;2.80;;
19780;SDS011;10050;55.492;13.506;2023-04-08T07:28:42;6.13;;;2.50;;
19780;SDS011;10050;55.492;13.506;2023-04-08T07:31:12;3.60;;;2.17;;
19780;SDS011;10050;55.492;13.506;2023-04-08T07:33:42;3.37;;;2.57;;
19780;SDS011;10050;55.492;13.506;2023-04-08T07:36:09;2.97;;;2.13;;
19780;SDS011;10050;55.492;13.506;2023-04-08T07:38:35;2.23;;;2.07;;
19780;SDS011;10050;55.492;13.506;2023-04-08T07:41:01;3.57;;;2.07;;
19780;SDS011;10050;55.492;13.506;2023-04-08T07:43:27;4.17;;;1.97;;
19780;SDS011;10050;55.492;13.506;2023-04-08T07:45:58;2.27;;;2.07;;
19780;SDS011;10050;55.492;13.506;2023-04-08T07:48:26;2.53;;;2.33;;
19780;SDS011;10050;55.492;13.506;2023-04-08T07:50:52;2.40;;;2.20;;
19780;SDS011;10050;55.492;13.506;2023-04-08T07:53:18;2.10;;;2.00;;
19780;SDS011;10050;55.492;13.506;2023-04-08T07:55:44;2.93;;;1.93;;
19780;SDS011;10050;55.492;13.506;2023-04-08T07:58:09;2.10;;;1.90;;
19780;SDS011;10050;55.492;13.506;2023-04-08T08:00:35;2.23;;;2.13;;
19780;SDS011;10050;55.492;13.506;2023-04-08T08:03:00;2.90;;;2.23;;
19780;SDS011;10050;55.492;13.506;2023-04-08T08:05:26;2.90;;;2.07;;
19780;SDS011;10050;55.492;13.506;2023-04-08T08:07:52;3.33;;;2.23;;
19780;SDS011;10050;55.492;13.506;2023-04-08T08:10:17;2.00;;;1.80;;
19780;SDS011;10050;55.492;13.506;2023-04-08T08:12:43;2.20;;;2.00;;
19780;SDS011;10050;55.492;13.506;2023-04-08T08:15:09;1.90;;;1.80;;
19780;SDS011;10050;55.492;13.506;2023-04-08T08:17:35;2.87;;;2.03;;
19780;SDS011;10050;55.492;13.506;2023-04-08T08:20:00;2.93;;;1.90;;
19780;SDS011;10050;55.492;13.506;2023-04-08T08:22:28;2.07;;;1.97;;
19780;SDS011;10050;55.492;13.506;2023-04-08T08:24:57;1.73;;;1.63;;
19780;SDS011;10050;55.492;13.506;2023-04-08T08:27:23;2.00;;;1.83;;
19780;SDS011;10050;55.492;13.506;2023-04-08T08:29:49;1.80;;;1.70;;
19780;SDS011;10050;55.492;13.506;2023-04-08T08:32:16;3.53;;;1.60;;
19780;SDS011;10050;55.492;13.506;2023-04-08T08:34:42;1.97;;;1.87;;
19780;SDS011;10050;55.492;13.506;2023-04-08T08:37:07;3.67;;;2.00;;
19780;SDS011;10050;55.492;13.506;2023-04-08T08:39:33;1.90;;;1.70;;
19780;SDS011;10050;55.492;13.506;2023-04-08T08:41:59;1.80;;;1.70;;
19780;SDS011;10050;55.492;13.506;2023-04-08T08:44:25;1.80;;;1.70;;
19780;SDS011;10050;55.492;13.506;2023-04-08T08:46:51;1.50;;;1.40;;
19780;SDS011;10050;55.492;13.506;2023-04-08T08:49:17;2.07;;;1.53;;
19780;SDS011;10050;55.492;13.506;2023-04-08T08:51:46;4.30;;;2.20;;
19780;SDS011;10050;55.492;13.506;2023-04-08T08:54:14;2.27;;;1.70;;
19780;SDS011;10050;55.492;13.506;2023-04-08T08:56:40;2.10;;;2.00;;
19780;SDS011;10050;55.492;13.506;2023-04-08T08:59:07;1.70;;;1.60;;
19780;SDS011;10050;55.492;13.506;2023-04-08T09:04:13;2.23;;;1.70;;
19780;SDS011;10050;55.492;13.506;2023-04-08T09:06:40;1.60;;;1.50;;
19780;SDS011;10050;55.492;13.506;2023-04-08T09:09:06;1.70;;;1.60;;
19780;SDS011;10050;55.492;13.506;2023-04-08T09:11:36;2.43;;;2.20;;
19780;SDS011;10050;55.492;13.506;2023-04-08T09:14:22;2.07;;;1.63;;
19780;SDS011;10050;55.492;13.506;2023-04-08T09:16:49;1.70;;;1.60;;
19780;SDS011;10050;55.492;13.506;2023-04-08T09:19:16;1.70;;;1.60;;
19780;SDS011;10050;55.492;13.506;2023-04-08T09:21:41;1.60;;;1.50;;
19780;SDS011;10050;55.492;13.506;2023-04-08T09:24:08;1.70;;;1.60;;
19780;SDS011;10050;55.492;13.506;2023-04-08T09:26:37;1.70;;;1.60;;
19780;SDS011;10050;55.492;13.506;2023-04-08T09:29:03;1.33;;;1.30;;
19780;SDS011;10050;55.492;13.506;2023-04-08T09:31:31;2.57;;;1.70;;
19780;SDS011;10050;55.492;13.506;2023-04-08T09:34:00;1.63;;;1.50;;
19780;SDS011;10050;55.492;13.506;2023-04-08T09:36:40;3.67;;;1.70;;
19780;SDS011;10050;55.492;13.506;2023-04-08T09:39:06;1.73;;;1.63;;
19780;SDS011;10050;55.492;13.506;2023-04-08T09:41:35;1.73;;;1.50;;
19780;SDS011;10050;55.492;13.506;2023-04-08T09:44:04;1.73;;;1.63;;
19780;SDS011;10050;55.492;13.506;2023-04-08T09:46:54;2.70;;;2.00;;
19780;SDS011;10050;55.492;13.506;2023-04-08T09:49:32;1.73;;;1.40;;
19780;SDS011;10050;55.492;13.506;2023-04-08T09:57:30;1.40;;;1.30;;
19780;SDS011;10050;55.492;13.506;2023-04-08T10:00:13;1.70;;;1.60;;
19780;SDS011;10050;55.492;13.506;2023-04-08T10:05:17;1.70;;;1.60;;
19780;SDS011;10050;55.492;13.506;2023-04-08T10:07:45;1.70;;;1.60;;
19780;SDS011;10050;55.492;13.506;2023-04-08T10:10:11;1.60;;;1.50;;
19780;SDS011;10050;55.492;13.506;2023-04-08T10:12:37;1.50;;;1.40;;
19780;SDS011;10050;55.492;13.506;2023-04-08T10:25:28;1.83;;;1.73;;
19780;SDS011;10050;55.492;13.506;2023-04-08T10:27:56;1.57;;;1.43;;
19780;SDS011;10050;55.492;13.506;2023-04-08T10:32:55;1.43;;;1.33;;
19780;SDS011;10050;55.492;13.506;2023-04-08T10:35:31;3.90;;;1.53;;
19780;SDS011;10050;55.492;13.506;2023-04-08T10:37:59;1.50;;;1.40;;
19780;SDS011;10050;55.492;13.506;2023-04-08T10:40:25;3.53;;;1.50;;
19780;SDS011;10050;55.492;13.506;2023-04-08T10:42:57;1.83;;;1.10;;
19780;SDS011;10050;55.492;13.506;2023-04-08T10:45:23;1.67;;;1.57;;
19780;SDS011;10050;55.492;13.506;2023-04-08T10:47:49;1.67;;;1.53;;
19780;SDS011;10050;55.492;13.506;2023-04-08T10:50:16;2.00;;;1.30;;
19780;SDS011;10050;55.492;13.506;2023-04-08T10:52:49;1.70;;;1.10;;
19780;SDS011;10050;55.492;13.506;2023-04-08T10:55:23;1.57;;;1.47;;
19780;SDS011;10050;55.492;13.506;2023-04-08T10:57:50;1.00;;;1.00;;
19780;SDS011;10050;55.492;13.506;2023-04-08T11:00:16;1.00;;;1.00;;
19780;SDS011;10050;55.492;13.506;2023-04-08T11:02:44;1.63;;;1.53;;
19780;SDS011;10050;55.492;13.506;2023-04-08T11:05:09;1.00;;;1.00;;
19780;SDS011;10050;55.492;13.506;2023-04-08T11:07:39;2.67;;;1.30;;
19780;SDS011;10050;55.492;13.506;2023-04-08T11:10:06;1.50;;;1.17;;
19780;SDS011;10050;55.492;13.506;2023-04-08T11:12:32;1.33;;;1.23;;
19780;SDS011;10050;55.492;13.506;2023-04-08T11:15:00;90.63;;;54.43;;
19780;SDS011;10050;55.492;13.506;2023-04-08T11:17:27;85.57;;;48.40;;
19780;SDS011;10050;55.492;13.506;2023-04-08T11:19:53;18.40;;;16.53;;
19780;SDS011;10050;55.492;13.506;2023-04-08T11:22:19;11.30;;;10.33;;
19780;SDS011;10050;55.492;13.506;2023-04-08T11:24:45;3.67;;;3.37;;
19780;SDS011;10050;55.492;13.506;2023-04-08T11:27:11;3.00;;;2.10;;
19780;SDS011;10050;55.492;13.506;2023-04-08T11:29:37;1.20;;;1.20;;
19780;SDS011;10050;55.492;13.506;2023-04-08T11:32:03;1.40;;;1.30;;
19780;SDS011;10050;55.492;13.506;2023-04-08T11:34:29;1.90;;;1.23;;
19780;SDS011;10050;55.492;13.506;2023-04-08T11:36:55;1.10;;;1.10;;
19780;SDS011;10050;55.492;13.506;2023-04-08T11:39:22;1.17;;;1.10;;
19780;SDS011;10050;55.492;13.506;2023-04-08T11:41:48;3.27;;;1.30;;
19780;SDS011;10050;55.492;13.506;2023-04-08T11:44:14;1.03;;;1.03;;
19780;SDS011;10050;55.492;13.506;2023-04-08T11:46:40;1.30;;;1.20;;
19780;SDS011;10050;55.492;13.506;2023-04-08T11:49:06;1.53;;;1.27;;
19780;SDS011;10050;55.492;13.506;2023-04-08T11:51:34;3.17;;;1.83;;
19780;SDS011;10050;55.492;13.506;2023-04-08T11:54:31;1.60;;;1.50;;
19780;SDS011;10050;55.492;13.506;2023-04-08T11:56:57;2.53;;;2.17;;
19780;SDS011;10050;55.492;13.506;2023-04-08T11:59:23;3.20;;;3.00;;
19780;SDS011;10050;55.492;13.506;2023-04-08T12:01:52;11.67;;;9.43;;
19780;SDS011;10050;55.492;13.506;2023-04-08T12:04:18;3.10;;;2.80;;
19780;SDS011;10050;55.492;13.506;2023-04-08T12:06:44;7.07;;;5.50;;
19780;SDS011;10050;55.492;13.506;2023-04-08T12:09:11;5.37;;;1.83;;
19780;SDS011;10050;55.492;13.506;2023-04-08T12:11:37;2.07;;;1.50;;
19780;SDS011;10050;55.492;13.506;2023-04-08T12:14:05;11.40;;;3.63;;
19780;SDS011;10050;55.492;13.506;2023-04-08T12:16:31;3.50;;;2.27;;
19780;SDS011;10050;55.492;13.506;2023-04-08T12:18:56;4.80;;;2.20;;
19780;SDS011;10050;55.492;13.506;2023-04-08T12:21:22;8.20;;;2.93;;
19780;SDS011;10050;55.492;13.506;2023-04-08T12:23:48;4.60;;;2.67;;
19780;SDS011;10050;55.492;13.506;2023-04-08T12:26:13;1.83;;;1.73;;
19780;SDS011;10050;55.492;13.506;2023-04-08T12:28:39;1.57;;;1.43;;
19780;SDS011;10050;55.492;13.506;2023-04-08T12:31:05;1.30;;;1.20;;
19780;SDS011;10050;55.492;13.506;2023-04-08T12:33:30;1.43;;;1.33;;
19780;SDS011;10050;55.492;13.506;2023-04-08T12:35:56;1.90;;;1.53;;
19780;SDS011;10050;55.492;13.506;2023-04-08T12:38:23;1.83;;;1.43;;
19780;SDS011;10050;55.492;13.506;2023-04-08T12:40:51;1.43;;;1.33;;
19780;SDS011;10050;55.492;13.506;2023-04-08T12:43:16;1.30;;;1.20;;
19780;SDS011;10050;55.492;13.506;2023-04-08T12:45:42;1.50;;;1.40;;
19780;SDS011;10050;55.492;13.506;2023-04-08T12:48:08;1.90;;;1.30;;
19780;SDS011;10050;55.492;13.506;2023-04-08T12:50:34;1.27;;;1.17;;
19780;SDS011;10050;55.492;13.506;2023-04-08T12:53:02;1.33;;;1.23;;
19780;SDS011;10050;55.492;13.506;2023-04-08T12:55:28;1.20;;;1.10;;
19780;SDS011;10050;55.492;13.506;2023-04-08T12:57:53;1.20;;;1.10;;
19780;SDS011;10050;55.492;13.506;2023-04-08T13:00:19;1.20;;;1.20;;
19780;SDS011;10050;55.492;13.506;2023-04-08T13:02:45;1.40;;;1.13;;
19780;SDS011;10050;55.492;13.506;2023-04-08T13:05:10;2.07;;;1.63;;
19780;SDS011;10050;55.492;13.506;2023-04-08T13:07:36;1.97;;;1.10;;
19780;SDS011;10050;55.492;13.506;2023-04-08T13:10:02;1.20;;;1.20;;
19780;SDS011;10050;55.492;13.506;2023-04-08T13:12:28;1.47;;;1.37;;
19780;SDS011;10050;55.492;13.506;2023-04-08T13:14:54;1.30;;;1.20;;
19780;SDS011;10050;55.492;13.506;2023-04-08T13:17:20;1.27;;;1.20;;
19780;SDS011;10050;55.492;13.506;2023-04-08T13:19:45;3.40;;;1.27;;
19780;SDS011;10050;55.492;13.506;2023-04-08T13:22:14;1.90;;;1.60;;
19780;SDS011;10050;55.492;13.506;2023-04-08T13:24:40;1.17;;;1.17;;
19780;SDS011;10050;55.492;13.506;2023-04-08T13:27:06;1.40;;;1.30;;
19780;SDS011;10050;55.492;13.506;2023-04-08T13:29:33;1.20;;;1.20;;
19780;SDS011;10050;55.492;13.506;2023-04-08T13:31:58;1.50;;;1.40;;
19780;SDS011;10050;55.492;13.506;2023-04-08T13:34:25;1.07;;;1.07;;
19780;SDS011;10050;55.492;13.506;2023-04-08T13:36:51;1.07;;;1.07;;
19780;SDS011;10050;55.492;13.506;2023-04-08T13:39:17;1.53;;;1.40;;
19780;SDS011;10050;55.492;13.506;2023-04-08T13:41:42;1.40;;;1.30;;
19780;SDS011;10050;55.492;13.506;2023-04-08T13:44:08;1.20;;;1.10;;
19780;SDS011;10050;55.492;13.506;2023-04-08T13:46:34;1.50;;;1.40;;
19780;SDS011;10050;55.492;13.506;2023-04-08T13:49:00;1.27;;;1.27;;
19780;SDS011;10050;55.492;13.506;2023-04-08T13:51:27;5.10;;;1.20;;
19780;SDS011;10050;55.492;13.506;2023-04-08T13:53:53;1.23;;;1.13;;
19780;SDS011;10050;55.492;13.506;2023-04-08T13:56:18;1.30;;;1.20;;
19780;SDS011;10050;55.492;13.506;2023-04-08T13:58:45;1.30;;;1.27;;
19780;SDS011;10050;55.492;13.506;2023-04-08T14:01:11;1.57;;;1.30;;
19780;SDS011;10050;55.492;13.506;2023-04-08T14:03:36;1.13;;;1.10;;
19780;SDS011;10050;55.492;13.506;2023-04-08T14:06:02;2.30;;;1.10;;
19780;SDS011;10050;55.492;13.506;2023-04-08T14:08:28;1.67;;;1.50;;
19780;SDS011;10050;55.492;13.506;2023-04-08T14:10:54;1.30;;;1.20;;
19780;SDS011;10050;55.492;13.506;2023-04-08T14:13:21;2.07;;;1.97;;
19780;SDS011;10050;55.492;13.506;2023-04-08T14:15:46;1.00;;;1.00;;
19780;SDS011;10050;55.492;13.506;2023-04-08T14:18:13;1.10;;;1.10;;
19780;SDS011;10050;55.492;13.506;2023-04-08T14:20:41;1.00;;;1.00;;
19780;SDS011;10050;55.492;13.506;2023-04-08T14:23:07;1.40;;;1.30;;
19780;SDS011;10050;55.492;13.506;2023-04-08T14:25:33;1.33;;;1.10;;
19780;SDS011;10050;55.492;13.506;2023-04-08T14:27:58;1.10;;;1.10;;
19780;SDS011;10050;55.492;13.506;2023-04-08T14:30:24;1.40;;;1.30;;
19780;SDS011;10050;55.492;13.506;2023-04-08T14:32:50;3.67;;;1.27;;
19780;SDS011;10050;55.492;13.506;2023-04-08T14:35:16;2.17;;;1.17;;
19780;SDS011;10050;55.492;13.506;2023-04-08T14:37:42;2.97;;;1.13;;
19780;SDS011;10050;55.492;13.506;2023-04-08T14:40:08;1.30;;;1.20;;
19780;SDS011;10050;55.492;13.506;2023-04-08T14:42:34;2.67;;;1.40;;
19780;SDS011;10050;55.492;13.506;2023-04-08T14:45:00;1.63;;;1.53;;
19780;SDS011;10050;55.492;13.506;2023-04-08T14:47:26;1.30;;;1.20;;
19780;SDS011;10050;55.492;13.506;2023-04-08T14:49:51;1.10;;;1.10;;
19780;SDS011;10050;55.492;13.506;2023-04-08T14:52:17;2.43;;;1.17;;
19780;SDS011;10050;55.492;13.506;2023-04-08T14:54:43;1.57;;;0.80;;
19780;SDS011;10050;55.492;13.506;2023-04-08T14:57:09;1.10;;;1.00;;
19780;SDS011;10050;55.492;13.506;2023-04-08T14:59:35;1.30;;;1.20;;